createdAt,value
2022-11-27T00:01:17.503Z,9.00
2022-11-27T00:03:44.415Z,9.00
2022-11-27T00:06:17.986Z,9.00
2022-11-27T00:08:45.924Z,9.00
2022-11-27T00:11:24.354Z,9.00
2022-11-27T00:13:51.950Z,9.00
2022-11-27T00:16:20.057Z,9.10
2022-11-27T00:18:47.339Z,9.10
2022-11-27T00:21:26.519Z,9.10
2022-11-27T00:23:55.133Z,9.00
2022-11-27T00:26:22.938Z,9.00
2022-11-27T00:28:50.680Z,9.00
2022-11-27T00:31:28.707Z,9.00
2022-11-27T00:33:56.697Z,9.10
2022-11-27T00:36:23.802Z,9.10
2022-11-27T00:38:51.476Z,9.00
2022-11-27T00:41:27.238Z,9.00
2022-11-27T00:43:55.306Z,8.90
2022-11-27T00:46:28.432Z,9.00
2022-11-27T00:49:00.529Z,9.00
2022-11-27T00:51:28.660Z,9.00
2022-11-27T00:53:56.238Z,9.00
2022-11-27T00:56:25.998Z,9.00
2022-11-27T00:58:53.826Z,9.00
2022-11-27T01:01:35.606Z,8.90
2022-11-27T01:04:04.907Z,8.90
2022-11-27T01:06:32.517Z,8.80
2022-11-27T01:09:00.011Z,8.70
2022-11-27T01:11:32.345Z,8.70
2022-11-27T01:14:02.395Z,8.70
2022-11-27T01:16:31.358Z,8.70
2022-11-27T01:18:59.813Z,8.60
2022-11-27T01:21:29.324Z,8.60
2022-11-27T01:23:56.365Z,8.50
2022-11-27T01:26:23.255Z,8.40
2022-11-27T01:28:54.563Z,8.40
2022-11-27T01:31:24.804Z,8.40
2022-11-27T01:33:57.219Z,8.50
2022-11-27T01:36:24.693Z,8.60
2022-11-27T01:38:51.871Z,8.70
2022-11-27T01:41:22.195Z,8.70
2022-11-27T01:44:01.170Z,8.70
2022-11-27T01:46:39.610Z,8.70
2022-11-27T01:49:09.281Z,8.70
2022-11-27T01:51:41.208Z,8.80
2022-11-27T01:54:10.594Z,8.80
2022-11-27T01:56:40.165Z,8.90
2022-11-27T01:59:08.041Z,8.80
2022-11-27T02:01:34.905Z,8.70
2022-11-27T02:04:02.262Z,8.70
2022-11-27T02:06:29.544Z,8.70
2022-11-27T02:08:56.806Z,8.60
2022-11-27T02:11:46.661Z,8.60
2022-11-27T02:14:41.352Z,8.60
2022-11-27T02:17:23.056Z,8.60
2022-11-27T02:20:12.035Z,8.70
2022-11-27T02:22:57.439Z,8.70
2022-11-27T02:25:28.592Z,8.70
2022-11-27T02:28:07.897Z,8.70
2022-11-27T02:30:40.465Z,8.60
2022-11-27T02:33:11.843Z,8.60
2022-11-27T02:35:48.152Z,8.60
2022-11-27T02:38:25.543Z,8.60
2022-11-27T02:40:59.022Z,8.60
2022-11-27T02:43:48.243Z,8.60
2022-11-27T02:46:18.256Z,8.60
2022-11-27T02:48:47.589Z,8.60
2022-11-27T02:51:17.826Z,8.60
2022-11-27T02:53:51.527Z,8.60
2022-11-27T02:56:23.996Z,8.50
2022-11-27T02:58:52.706Z,8.60
2022-11-27T03:01:22.098Z,8.60
2022-11-27T03:03:53.555Z,8.60
2022-11-27T03:06:42.091Z,8.70
2022-11-27T03:09:32.061Z,8.80
2022-11-27T03:11:59.453Z,8.80
2022-11-27T03:14:26.522Z,8.80
2022-11-27T03:17:21.466Z,8.90
2022-11-27T03:20:20.568Z,8.80
2022-11-27T03:22:47.643Z,8.80
2022-11-27T03:25:16.299Z,8.90
2022-11-27T03:27:55.796Z,8.90
2022-11-27T03:30:23.026Z,8.90
2022-11-27T03:32:49.975Z,8.90
2022-11-27T03:35:21.878Z,8.90
2022-11-27T03:37:49.745Z,8.90
2022-11-27T03:40:17.912Z,8.90
2022-11-27T03:42:48.179Z,8.80
2022-11-27T03:45:41.463Z,8.80
2022-11-27T03:48:22.316Z,8.80
2022-11-27T03:51:02.455Z,8.80
2022-11-27T03:53:47.253Z,8.80
2022-11-27T03:56:33.894Z,8.70
2022-11-27T03:59:07.413Z,8.80
2022-11-27T04:01:34.438Z,8.90
2022-11-27T04:04:01.361Z,8.80
2022-11-27T04:06:28.334Z,8.90
2022-11-27T04:08:55.154Z,8.80
2022-11-27T04:11:21.931Z,8.70
2022-11-27T04:13:48.878Z,8.70
2022-11-27T04:16:15.850Z,8.80
2022-11-27T04:18:42.624Z,8.80
2022-11-27T04:21:09.485Z,8.80
2022-11-27T04:23:37.782Z,8.80
2022-11-27T04:26:05.733Z,8.80
2022-11-27T04:28:32.935Z,8.80
2022-11-27T04:30:59.755Z,8.80
2022-11-27T04:33:26.875Z,8.80
2022-11-27T04:35:53.932Z,8.90
2022-11-27T04:38:21.846Z,8.80
2022-11-27T04:40:51.245Z,8.70
2022-11-27T04:43:18.030Z,8.70
2022-11-27T04:45:44.917Z,8.60
2022-11-27T04:48:11.861Z,8.60
2022-11-27T04:50:39.358Z,8.70
2022-11-27T04:53:06.179Z,8.70
2022-11-27T04:55:33.223Z,8.80
2022-11-27T04:58:00.325Z,8.70
2022-11-27T05:00:27.614Z,8.70
2022-11-27T05:02:54.948Z,8.60
2022-11-27T05:05:21.784Z,8.70
2022-11-27T05:07:48.637Z,8.80
2022-11-27T05:10:15.513Z,8.80
2022-11-27T05:12:42.703Z,8.80
2022-11-27T05:15:10.060Z,8.80
2022-11-27T05:17:37.340Z,8.70
2022-11-27T05:20:05.079Z,8.70
2022-11-27T05:22:32.234Z,8.80
2022-11-27T05:24:58.975Z,8.80
2022-11-27T05:27:25.764Z,8.70
2022-11-27T05:29:52.528Z,8.70
2022-11-27T05:32:19.745Z,8.70
2022-11-27T05:34:48.635Z,8.80
2022-11-27T05:37:19.429Z,8.80
2022-11-27T05:39:46.853Z,8.90
2022-11-27T05:42:13.723Z,8.90
2022-11-27T05:44:41.071Z,8.90
2022-11-27T05:47:08.115Z,8.90
2022-11-27T05:49:35.280Z,8.90
2022-11-27T05:52:02.455Z,8.90
2022-11-27T05:54:29.647Z,8.90
2022-11-27T05:56:56.827Z,8.80
2022-11-27T05:59:23.606Z,8.90
2022-11-27T06:01:50.604Z,8.90
2022-11-27T06:04:18.069Z,9.00
2022-11-27T06:06:45.323Z,9.00
2022-11-27T06:09:13.418Z,8.90
2022-11-27T06:11:42.504Z,8.90
2022-11-27T06:14:10.770Z,8.90
2022-11-27T06:16:38.338Z,8.90
2022-11-27T06:19:05.261Z,8.90
2022-11-27T06:21:32.070Z,8.90
2022-11-27T06:23:59.468Z,8.80
2022-11-27T06:26:28.503Z,8.80
2022-11-27T06:28:56.653Z,8.90
2022-11-27T06:31:27.633Z,8.90
2022-11-27T06:33:55.947Z,8.80
2022-11-27T06:36:26.744Z,8.80
2022-11-27T06:38:54.144Z,8.80
2022-11-27T06:41:24.760Z,8.70
2022-11-27T06:43:51.864Z,8.70
2022-11-27T06:46:21.273Z,8.80
2022-11-27T06:48:49.695Z,8.90
2022-11-27T06:51:19.970Z,8.80
2022-11-27T06:53:47.158Z,8.90
2022-11-27T06:56:17.010Z,8.90
2022-11-27T06:58:44.586Z,8.90
2022-11-27T07:01:16.890Z,8.80
2022-11-27T07:03:44.242Z,8.80
2022-11-27T07:06:17.714Z,8.80
2022-11-27T07:08:44.545Z,8.80
2022-11-27T07:11:18.358Z,8.80
2022-11-27T07:13:49.607Z,8.80
2022-11-27T07:16:18.409Z,8.90
2022-11-27T07:18:53.206Z,8.90
2022-11-27T07:21:20.348Z,9.10
2022-11-27T07:23:47.805Z,9.10
2022-11-27T07:26:21.105Z,9.20
2022-11-27T07:28:48.425Z,9.30
2022-11-27T07:31:28.832Z,9.30
2022-11-27T07:33:56.724Z,9.40
2022-11-27T07:36:26.649Z,9.50
2022-11-27T07:38:53.621Z,9.50
2022-11-27T07:41:20.944Z,9.50
2022-11-27T07:43:48.368Z,9.40
2022-11-27T07:46:22.285Z,9.40
2022-11-27T07:48:50.027Z,9.40
2022-11-27T07:51:19.032Z,9.40
2022-11-27T07:53:46.409Z,9.40
2022-11-27T07:56:15.335Z,9.40
2022-11-27T07:58:42.196Z,9.40
2022-11-27T08:01:11.738Z,9.40
2022-11-27T08:03:38.736Z,9.50
2022-11-27T08:06:13.332Z,9.60
2022-11-27T08:08:40.560Z,9.60
2022-11-27T08:11:21.951Z,9.50
2022-11-27T08:13:49.618Z,9.60
2022-11-27T08:16:17.015Z,9.60
2022-11-27T08:18:44.363Z,9.60
2022-11-27T08:21:11.336Z,9.70
2022-11-27T08:23:38.137Z,9.70
2022-11-27T08:26:07.382Z,9.80
2022-11-27T08:28:34.831Z,9.80
2022-11-27T08:31:03.299Z,9.80
2022-11-27T08:33:30.599Z,9.70
2022-11-27T08:35:57.644Z,9.70
2022-11-27T08:38:24.607Z,9.80
2022-11-27T08:41:00.298Z,9.70
2022-11-27T08:43:28.046Z,9.80
2022-11-27T08:45:55.668Z,9.80
2022-11-27T08:48:23.555Z,9.80
2022-11-27T08:50:52.630Z,9.90
2022-11-27T08:53:19.891Z,10.00
2022-11-27T08:55:47.759Z,10.00
2022-11-27T08:58:15.245Z,10.00
2022-11-27T09:00:42.074Z,10.10
2022-11-27T09:03:11.524Z,10.30
2022-11-27T09:05:43.022Z,10.40
2022-11-27T09:08:09.974Z,10.40
2022-11-27T09:10:37.546Z,10.50
2022-11-27T09:13:04.801Z,10.50
2022-11-27T09:15:31.611Z,10.50
2022-11-27T09:17:58.981Z,10.60
2022-11-27T09:20:25.904Z,9.00
2022-11-27T09:22:52.655Z,8.90
2022-11-27T09:25:19.929Z,10.80
2022-11-27T09:27:47.205Z,10.90
2022-11-27T09:30:17.929Z,9.30
2022-11-27T09:32:45.436Z,10.90
2022-11-27T09:35:13.171Z,10.90
2022-11-27T09:40:18.242Z,11.10
2022-11-27T10:01:53.658Z,11.10
2022-11-27T10:04:21.803Z,10.90
2022-11-27T10:09:41.858Z,11.30
2022-11-27T10:12:33.733Z,10.30
2022-11-27T10:15:27.324Z,9.90
2022-11-27T10:18:31.246Z,10.90
2022-11-27T10:23:55.230Z,11.80
2022-11-27T10:26:32.200Z,10.60
2022-11-27T10:31:43.198Z,11.90
2022-11-27T10:34:28.828Z,11.70
2022-11-27T10:36:58.887Z,11.70
2022-11-27T10:39:33.957Z,11.70
2022-11-27T10:42:10.706Z,11.30
2022-11-27T10:44:58.855Z,11.70
2022-11-27T10:47:33.490Z,11.70
2022-11-27T10:50:01.219Z,11.20
2022-11-27T10:52:28.834Z,11.50
2022-11-27T11:34:22.693Z,11.90
2022-11-27T11:48:39.538Z,12.40
2022-11-27T12:05:22.469Z,12.40
2022-11-27T12:07:52.731Z,13.80
2022-11-27T12:28:13.682Z,13.10
2022-11-27T12:31:16.710Z,12.90
2022-11-27T12:33:43.886Z,12.20
2022-11-27T12:36:29.799Z,12.90
2022-11-27T12:39:18.689Z,12.70
2022-11-27T12:47:24.814Z,12.70
2022-11-27T12:50:00.826Z,11.90
2022-11-27T12:52:38.454Z,11.60
2022-11-27T12:55:14.847Z,11.90
2022-11-27T12:58:06.553Z,13.90
2022-11-27T13:00:39.752Z,12.20
2022-11-27T13:03:19.958Z,12.00
2022-11-27T13:05:55.897Z,11.10
2022-11-27T13:09:00.305Z,11.00
2022-11-27T13:11:40.736Z,11.00
2022-11-27T13:14:20.636Z,10.60
2022-11-27T13:16:53.204Z,11.80
2022-11-27T13:24:43.800Z,12.10
2022-11-27T13:27:17.782Z,12.20
2022-11-27T13:29:50.362Z,13.50
2022-11-27T13:32:26.995Z,11.60
2022-11-27T14:03:42.984Z,12.30
2022-11-27T15:28:02.700Z,10.70
2022-11-27T17:52:23.653Z,10.10
2022-11-27T21:34:51.368Z,8.80
2022-11-27T21:37:18.667Z,8.80
2022-11-27T21:39:45.622Z,8.70
2022-11-27T21:42:12.458Z,8.70
2022-11-27T21:44:42.114Z,8.60
2022-11-27T21:47:12.109Z,8.50
2022-11-27T21:49:39.983Z,8.50
2022-11-27T21:52:07.340Z,8.40
2022-11-27T21:54:34.774Z,8.40
2022-11-27T21:57:01.898Z,8.40
2022-11-27T21:59:28.851Z,8.40
2022-11-27T22:01:57.346Z,8.30
2022-11-27T22:04:25.645Z,8.30
2022-11-27T22:06:53.101Z,8.40
2022-11-27T22:09:20.316Z,8.50
2022-11-27T22:11:47.684Z,8.50
2022-11-27T22:14:16.549Z,8.60
2022-11-27T22:16:45.680Z,8.60
2022-11-27T22:19:14.598Z,8.60
2022-11-27T22:21:42.772Z,8.60
2022-11-27T22:24:15.118Z,8.70
2022-11-27T22:26:45.899Z,8.70
2022-11-27T22:29:13.276Z,8.70
2022-11-27T22:31:40.138Z,8.70
2022-11-27T22:34:07.001Z,8.70
2022-11-27T22:36:35.095Z,8.80
2022-11-27T22:39:06.139Z,8.70
2022-11-27T22:41:36.552Z,8.70
2022-11-27T22:44:14.474Z,8.70
2022-11-27T22:46:42.538Z,8.60
2022-11-27T22:49:12.561Z,8.60
2022-11-27T22:51:39.996Z,8.60
2022-11-27T22:54:10.377Z,8.50
2022-11-27T22:56:37.263Z,8.40
2022-11-27T22:59:31.257Z,8.20
2022-11-27T23:01:53.573Z,8.00
2022-11-27T23:04:21.012Z,7.90
2022-11-27T23:06:47.944Z,7.60
2022-11-27T23:09:17.754Z,7.50
2022-11-27T23:11:47.222Z,7.40
2022-11-27T23:14:14.473Z,7.50
2022-11-27T23:16:41.499Z,7.50
2022-11-27T23:19:09.001Z,7.50
2022-11-27T23:21:37.731Z,7.50
2022-11-27T23:24:06.046Z,7.50
2022-11-27T23:26:32.940Z,7.50
2022-11-27T23:28:59.800Z,7.60
2022-11-27T23:31:30.691Z,7.70
2022-11-27T23:34:01.227Z,7.70
2022-11-27T23:36:28.654Z,7.80
2022-11-27T23:38:55.561Z,7.70
2022-11-27T23:41:24.519Z,7.60
2022-11-27T23:43:52.832Z,7.60
2022-11-27T23:46:23.013Z,7.50
2022-11-27T23:48:50.149Z,7.40
2022-11-27T23:51:23.630Z,7.50
2022-11-27T23:53:50.529Z,7.60
2022-11-27T23:56:29.656Z,7.40
2022-11-27T23:58:56.872Z,7.50
